Time;durP1;ratioP1;P1;durP2;ratioP2;P2;SDS_P1;SDS_P2;PMS_P1;PMS_P2;Temp;Humidity;BMP_temperature;BMP_pressure;BME280_temperature;BME280_humidity;BME280_pressure;Samples;Min_cycle;Max_cycle;Signal;HPM_P1;HPM_P2
2021/08/27 00:01:30;;;;;;;6.07;2.92;;;;;;;;;;5043624;28;20111;-77
2021/08/27 00:03:56;;;;;;;8.20;3.33;;;;;;;;;;5078948;28;20024;-77
2021/08/27 00:06:22;;;;;;;9.02;3.05;;;;;;;;;;5077534;28;20033;-77
2021/08/27 00:08:48;;;;;;;8.35;3.42;;;;;;;;;;5076839;28;20100;-77
2021/08/27 00:11:14;;;;;;;5.20;2.60;;;;;;;;;;5073614;28;20103;-77
2021/08/27 00:13:41;;;;;;;7.00;2.85;;;;;;;;;;5073931;28;20154;-77
2021/08/27 00:16:07;;;;;;;5.93;3.58;;;;;;;;;;5073583;28;20344;-77
2021/08/27 00:18:33;;;;;;;10.20;2.83;;;;;;;;;;5073361;28;20086;-77
2021/08/27 00:20:59;;;;;;;6.25;2.78;;;;;;;;;;5055180;28;20020;-76
2021/08/27 00:23:25;;;;;;;6.82;3.03;;;;;;;;;;5073386;28;20020;-77
2021/08/27 00:25:51;;;;;;;6.78;3.00;;;;;;;;;;5073318;28;20455;-76
2021/08/27 00:28:17;;;;;;;7.05;3.33;;;;;;;;;;5073574;28;20024;-78
2021/08/27 00:30:43;;;;;;;6.75;2.65;;;;;;;;;;5072691;28;20136;-77
2021/08/27 00:33:09;;;;;;;8.10;2.78;;;;;;;;;;5073138;28;20087;-77
2021/08/27 00:35:35;;;;;;;10.32;3.10;;;;;;;;;;5055304;28;20036;-77
2021/08/27 00:38:01;;;;;;;6.80;2.75;;;;;;;;;;5072935;28;20091;-77
2021/08/27 00:40:27;;;;;;;8.10;3.53;;;;;;;;;;5072209;28;20017;-78
2021/08/27 00:42:53;;;;;;;9.32;2.70;;;;;;;;;;5073302;28;20013;-78
2021/08/27 00:45:19;;;;;;;6.72;2.80;;;;;;;;;;5055011;28;20023;-77
2021/08/27 00:47:45;;;;;;;8.60;3.03;;;;;;;;;;5054799;28;20050;-77
2021/08/27 00:50:12;;;;;;;7.63;2.53;;;;;;;;;;5072325;28;20508;-77
2021/08/27 00:52:38;;;;;;;7.88;3.88;;;;;;;;;;5072653;28;20036;-77
2021/08/27 00:55:04;;;;;;;8.43;3.20;;;;;;;;;;5073566;28;20036;-77
2021/08/27 00:57:30;;;;;;;9.15;4.10;;;;;;;;;;5058007;28;20103;-76
2021/08/27 00:59:56;;;;;;;8.13;2.90;;;;;;;;;;5074856;28;20112;-75
2021/08/27 01:02:22;;;;;;;7.05;2.70;;;;;;;;;;5076675;28;20028;-77
2021/08/27 01:04:50;;;;;;;7.05;2.80;;;;;;;;;;5072478;28;20032;-77
2021/08/27 01:07:21;;;;;;;9.27;2.95;;;;;;;;;;5072329;28;20086;-77
2021/08/27 01:09:51;;;;;;;15.75;3.47;;;;;;;;;;5071603;28;20086;-75
2021/08/27 01:12:21;;;;;;;4.68;2.55;;;;;;;;;;5072329;28;20020;-77
2021/08/27 01:14:50;;;;;;;7.78;3.17;;;;;;;;;;5072452;28;20020;-76
2021/08/27 01:17:27;;;;;;;5.97;2.88;;;;;;;;;;5072967;28;20089;-77
2021/08/27 01:19:56;;;;;;;5.80;2.95;;;;;;;;;;5072068;28;20093;-76
2021/08/27 01:22:41;;;;;;;6.53;2.83;;;;;;;;;;5072629;28;20032;-76
2021/08/27 01:25:08;;;;;;;7.45;2.75;;;;;;;;;;5072605;28;20036;-77
2021/08/27 01:27:36;;;;;;;5.60;2.80;;;;;;;;;;5072508;28;20028;-77
2021/08/27 01:30:20;;;;;;;7.38;2.80;;;;;;;;;;5071958;28;20102;-76
2021/08/27 01:32:58;;;;;;;5.68;2.55;;;;;;;;;;5054160;28;20036;-76
2021/08/27 01:35:25;;;;;;;6.55;2.50;;;;;;;;;;5072629;28;20059;-77
2021/08/27 01:37:53;;;;;;;7.18;2.60;;;;;;;;;;5075448;28;20073;-76
2021/08/27 01:40:21;;;;;;;4.72;2.08;;;;;;;;;;5074575;28;20111;-76
2021/08/27 01:42:47;;;;;;;7.03;3.05;;;;;;;;;;5074965;28;20105;-76
2021/08/27 01:45:15;;;;;;;8.27;2.50;;;;;;;;;;5074976;28;20020;-76
2021/08/27 01:47:41;;;;;;;5.07;2.10;;;;;;;;;;5075016;28;20392;-76
2021/08/27 01:50:08;;;;;;;6.57;3.00;;;;;;;;;;5056961;28;20086;-77
2021/08/27 01:52:35;;;;;;;13.38;2.47;;;;;;;;;;5074924;28;20041;-76
2021/08/27 01:55:02;;;;;;;6.13;2.58;;;;;;;;;;5074584;28;20450;-76
2021/08/27 01:57:28;;;;;;;4.25;2.33;;;;;;;;;;5074665;28;20035;-77
2021/08/27 01:59:55;;;;;;;6.13;2.90;;;;;;;;;;5074608;28;20431;-77
2021/08/27 02:02:22;;;;;;;6.40;2.70;;;;;;;;;;5074485;28;20056;-76
2021/08/27 02:04:52;;;;;;;4.47;2.47;;;;;;;;;;5074497;28;20103;-77
2021/08/27 02:07:18;;;;;;;6.85;2.20;;;;;;;;;;5074768;28;20020;-77
2021/08/27 02:09:45;;;;;;;5.00;3.05;;;;;;;;;;5056610;28;20111;-77
2021/08/27 02:12:11;;;;;;;10.85;3.00;;;;;;;;;;5074540;28;20116;-77
2021/08/27 02:14:39;;;;;;;6.25;3.17;;;;;;;;;;5056511;28;20031;-76
2021/08/27 02:17:06;;;;;;;6.28;3.30;;;;;;;;;;5074443;28;20519;-77
2021/08/27 02:19:32;;;;;;;9.43;3.78;;;;;;;;;;5074448;28;20021;-77
2021/08/27 02:21:59;;;;;;;4.97;3.13;;;;;;;;;;5074607;28;20133;-77
2021/08/27 02:24:31;;;;;;;4.80;2.88;;;;;;;;;;5056487;28;20029;-77
2021/08/27 02:26:58;;;;;;;10.52;3.83;;;;;;;;;;5074589;28;20098;-77
2021/08/27 02:29:25;;;;;;;6.32;3.25;;;;;;;;;;5073618;28;20012;-77
2021/08/27 02:31:54;;;;;;;6.05;3.67;;;;;;;;;;5074294;28;20129;-76
2021/08/27 02:34:20;;;;;;;9.40;3.70;;;;;;;;;;5074047;28;20392;-77
2021/08/27 02:36:48;;;;;;;6.95;4.13;;;;;;;;;;5059140;28;20405;-76
2021/08/27 02:39:15;;;;;;;7.65;4.15;;;;;;;;;;5053585;28;20033;-77
2021/08/27 02:41:41;;;;;;;10.10;4.15;;;;;;;;;;5040486;28;20461;-76
2021/08/27 02:44:07;;;;;;;7.30;3.30;;;;;;;;;;5073766;28;20027;-77
2021/08/27 02:46:33;;;;;;;10.35;3.60;;;;;;;;;;5056171;28;20027;-76
2021/08/27 02:49:00;;;;;;;10.55;4.60;;;;;;;;;;5073450;28;20025;-77
2021/08/27 02:51:33;;;;;;;7.93;4.00;;;;;;;;;;5056199;28;20036;-77
2021/08/27 02:54:00;;;;;;;7.45;4.18;;;;;;;;;;5073766;28;20036;-76
2021/08/27 02:56:28;;;;;;;9.38;4.25;;;;;;;;;;5073736;28;20052;-76
2021/08/27 02:58:57;;;;;;;9.27;4.50;;;;;;;;;;5055136;28;20036;-76
2021/08/27 03:01:35;;;;;;;10.00;4.55;;;;;;;;;;5073861;28;20020;-76
2021/08/27 03:04:12;;;;;;;8.00;4.13;;;;;;;;;;5073047;28;20044;-76
2021/08/27 03:06:52;;;;;;;10.23;4.10;;;;;;;;;;5057901;28;20081;-76
2021/08/27 03:09:18;;;;;;;15.02;4.65;;;;;;;;;;5073277;28;20028;-76
2021/08/27 03:11:53;;;;;;;9.38;4.60;;;;;;;;;;5055601;28;20021;-76
2021/08/27 03:14:22;;;;;;;9.00;3.97;;;;;;;;;;5074006;28;20028;-77
2021/08/27 03:16:52;;;;;;;6.75;4.20;;;;;;;;;;5061184;28;20047;-77
2021/08/27 03:19:25;;;;;;;7.45;4.63;;;;;;;;;;5072861;28;20056;-77
2021/08/27 03:21:51;;;;;;;9.93;5.10;;;;;;;;;;5073427;28;20396;-77
2021/08/27 03:24:20;;;;;;;8.93;4.63;;;;;;;;;;5073236;28;20024;-77
2021/08/27 03:26:47;;;;;;;8.98;4.43;;;;;;;;;;5073103;28;20016;-77
2021/08/27 03:29:14;;;;;;;15.07;5.25;;;;;;;;;;5054068;28;20044;-77
2021/08/27 03:31:41;;;;;;;11.13;5.28;;;;;;;;;;5073213;28;20472;-77
2021/08/27 03:34:07;;;;;;;8.35;5.22;;;;;;;;;;5072361;28;20036;-78
2021/08/27 03:36:33;;;;;;;9.10;5.80;;;;;;;;;;5073243;28;20088;-77
2021/08/27 03:39:01;;;;;;;9.88;5.82;;;;;;;;;;5072330;28;20088;-77
2021/08/27 03:41:28;;;;;;;10.38;5.47;;;;;;;;;;5072652;28;20027;-77
2021/08/27 03:43:55;;;;;;;10.80;5.00;;;;;;;;;;5072543;28;20040;-77
2021/08/27 03:46:21;;;;;;;10.68;6.18;;;;;;;;;;5072879;28;20505;-77
2021/08/27 03:48:48;;;;;;;14.88;7.20;;;;;;;;;;5072584;28;20481;-77
2021/08/27 03:51:14;;;;;;;9.38;6.30;;;;;;;;;;5072223;28;20027;-76
2021/08/27 03:53:41;;;;;;;15.73;6.22;;;;;;;;;;5054838;28;20059;-76
2021/08/27 03:56:09;;;;;;;10.13;5.57;;;;;;;;;;5072630;28;20055;-76
2021/08/27 03:58:35;;;;;;;10.50;5.38;;;;;;;;;;5051994;28;20098;-76
2021/08/27 04:01:01;;;;;;;9.40;5.65;;;;;;;;;;5034330;28;20027;-77
2021/08/27 04:03:27;;;;;;;11.27;5.95;;;;;;;;;;5070957;28;20479;-77
2021/08/27 04:05:57;;;;;;;10.73;5.93;;;;;;;;;;5072294;28;20029;-77
2021/08/27 04:08:24;;;;;;;10.70;5.15;;;;;;;;;;5054506;28;20098;-77
2021/08/27 04:10:50;;;;;;;8.63;5.60;;;;;;;;;;5053429;28;20021;-77
2021/08/27 04:13:16;;;;;;;8.55;5.65;;;;;;;;;;5072666;28;20020;-76
2021/08/27 04:15:42;;;;;;;11.30;5.43;;;;;;;;;;5072730;28;20165;-77
2021/08/27 04:18:08;;;;;;;10.73;5.97;;;;;;;;;;5072343;28;20681;-75
2021/08/27 04:20:34;;;;;;;12.75;5.72;;;;;;;;;;5054033;28;20028;-75
2021/08/27 04:23:00;;;;;;;10.50;4.75;;;;;;;;;;5054620;28;20115;-76
2021/08/27 04:25:26;;;;;;;8.80;5.40;;;;;;;;;;5071601;28;20110;-75
2021/08/27 04:27:52;;;;;;;7.30;4.95;;;;;;;;;;5072309;28;20107;-77
2021/08/27 04:30:18;;;;;;;9.40;4.97;;;;;;;;;;5071317;28;20040;-76
2021/08/27 04:32:44;;;;;;;12.73;6.28;;;;;;;;;;5071597;28;20055;-76
2021/08/27 04:35:10;;;;;;;17.60;6.45;;;;;;;;;;5070912;28;20036;-75
2021/08/27 04:37:36;;;;;;;11.68;7.15;;;;;;;;;;5071747;28;20025;-75
2021/08/27 04:40:03;;;;;;;19.15;8.13;;;;;;;;;;5070834;28;20039;-75
2021/08/27 04:42:29;;;;;;;13.85;7.32;;;;;;;;;;5071567;28;20107;-75
2021/08/27 04:44:55;;;;;;;13.73;8.45;;;;;;;;;;5071642;28;20107;-75
2021/08/27 04:47:21;;;;;;;11.52;7.35;;;;;;;;;;5071669;28;20043;-75
2021/08/27 04:49:47;;;;;;;17.20;7.78;;;;;;;;;;5071153;28;20029;-75
2021/08/27 04:52:13;;;;;;;10.85;7.57;;;;;;;;;;5071720;28;20028;-75
2021/08/27 04:54:39;;;;;;;17.15;7.90;;;;;;;;;;5071319;28;20550;-75
2021/08/27 04:57:05;;;;;;;11.57;7.55;;;;;;;;;;5071422;28;20054;-75
2021/08/27 04:59:31;;;;;;;13.05;8.10;;;;;;;;;;5070581;28;20477;-76
2021/08/27 05:01:59;;;;;;;11.02;7.15;;;;;;;;;;5071521;28;20058;-75
2021/08/27 05:04:26;;;;;;;14.13;7.72;;;;;;;;;;5070935;28;20017;-75
2021/08/27 05:06:52;;;;;;;11.70;7.53;;;;;;;;;;5070869;28;20025;-75
2021/08/27 05:09:19;;;;;;;18.23;7.93;;;;;;;;;;5070053;28;20037;-76
2021/08/27 05:11:45;;;;;;;9.60;7.20;;;;;;;;;;5070968;28;20106;-75
2021/08/27 05:14:11;;;;;;;14.57;8.80;;;;;;;;;;5071385;28;20480;-75
2021/08/27 05:16:37;;;;;;;13.95;8.10;;;;;;;;;;5071250;28;20029;-75
2021/08/27 05:19:03;;;;;;;12.27;7.50;;;;;;;;;;5070650;28;20059;-75
2021/08/27 05:21:29;;;;;;;10.57;6.90;;;;;;;;;;5052969;28;20090;-75
2021/08/27 05:23:55;;;;;;;11.80;7.45;;;;;;;;;;5071335;28;20039;-75
2021/08/27 05:26:21;;;;;;;14.98;7.85;;;;;;;;;;5053152;28;20052;-75
2021/08/27 05:28:48;;;;;;;16.85;8.27;;;;;;;;;;5070628;28;20021;-75
2021/08/27 05:31:15;;;;;;;14.02;8.10;;;;;;;;;;5070871;28;20056;-75
2021/08/27 05:33:41;;;;;;;16.73;7.80;;;;;;;;;;5071371;28;20032;-76
2021/08/27 05:36:07;;;;;;;14.23;7.35;;;;;;;;;;5051211;28;20060;-75
2021/08/27 05:38:33;;;;;;;12.43;7.50;;;;;;;;;;5040943;28;20565;-75
2021/08/27 05:40:59;;;;;;;13.50;7.70;;;;;;;;;;5070589;28;20120;-75
2021/08/27 05:43:25;;;;;;;15.35;7.05;;;;;;;;;;5062541;28;20043;-76
2021/08/27 05:45:51;;;;;;;11.75;6.70;;;;;;;;;;5060818;28;20477;-75
2021/08/27 05:48:17;;;;;;;13.38;6.63;;;;;;;;;;5067560;28;20029;-75
2021/08/27 05:50:43;;;;;;;16.25;7.95;;;;;;;;;;5062593;28;20493;-75
2021/08/27 05:53:09;;;;;;;18.08;8.60;;;;;;;;;;5052947;28;20044;-75
2021/08/27 05:55:35;;;;;;;17.67;8.38;;;;;;;;;;5070957;28;20028;-75
2021/08/27 05:58:02;;;;;;;24.42;8.77;;;;;;;;;;5070579;28;20516;-75
2021/08/27 06:00:28;;;;;;;16.65;6.72;;;;;;;;;;5070534;28;20394;-75
2021/08/27 06:02:54;;;;;;;19.38;6.07;;;;;;;;;;5052694;28;20035;-75
2021/08/27 06:05:20;;;;;;;12.73;5.40;;;;;;;;;;5052672;28;20029;-75
2021/08/27 06:07:47;;;;;;;7.50;5.38;;;;;;;;;;5070781;28;20070;-75
2021/08/27 06:10:13;;;;;;;16.13;6.25;;;;;;;;;;5070233;28;20078;-75
2021/08/27 06:12:40;;;;;;;9.23;5.18;;;;;;;;;;5070665;28;20063;-75
2021/08/27 06:15:06;;;;;;;14.93;7.32;;;;;;;;;;5067672;28;20025;-75
2021/08/27 06:17:32;;;;;;;29.27;13.55;;;;;;;;;;5063053;28;20054;-75
2021/08/27 06:19:58;;;;;;;21.33;11.18;;;;;;;;;;5058777;28;20521;-75
2021/08/27 06:22:24;;;;;;;10.93;6.45;;;;;;;;;;5068155;28;20108;-75
2021/08/27 06:24:50;;;;;;;12.98;7.15;;;;;;;;;;5065345;28;20527;-75
2021/08/27 06:27:16;;;;;;;13.43;6.32;;;;;;;;;;5053667;28;20032;-75
2021/08/27 06:29:42;;;;;;;13.68;4.85;;;;;;;;;;5062170;28;20032;-74
2021/08/27 06:32:08;;;;;;;8.13;4.47;;;;;;;;;;5072876;28;20031;-75
2021/08/27 06:34:34;;;;;;;9.20;4.55;;;;;;;;;;5073388;28;20115;-74
2021/08/27 06:37:01;;;;;;;7.90;4.90;;;;;;;;;;5071390;28;20033;-75
2021/08/27 06:39:27;;;;;;;8.88;3.90;;;;;;;;;;5073795;28;20077;-74
2021/08/27 06:41:53;;;;;;;9.35;4.00;;;;;;;;;;5073823;28;20033;-74
2021/08/27 06:44:19;;;;;;;8.20;3.70;;;;;;;;;;5073912;28;20023;-75
2021/08/27 06:46:45;;;;;;;10.10;4.47;;;;;;;;;;5055975;28;20029;-75
2021/08/27 06:49:11;;;;;;;7.07;4.13;;;;;;;;;;5073299;28;20144;-74
2021/08/27 06:51:38;;;;;;;7.55;5.05;;;;;;;;;;5073376;28;20035;-74
2021/08/27 06:54:04;;;;;;;5.18;3.00;;;;;;;;;;5074167;28;20032;-74
2021/08/27 06:56:30;;;;;;;10.63;3.47;;;;;;;;;;5073138;28;20056;-74
2021/08/27 06:58:56;;;;;;;7.05;3.30;;;;;;;;;;5066722;28;20109;-75
2021/08/27 07:01:22;;;;;;;9.65;2.97;;;;;;;;;;5061462;28;20028;-75
2021/08/27 07:03:48;;;;;;;10.00;2.92;;;;;;;;;;5071738;28;20035;-74
2021/08/27 07:06:14;;;;;;;6.50;2.38;;;;;;;;;;5073324;28;20024;-75
2021/08/27 07:08:41;;;;;;;6.80;2.65;;;;;;;;;;5055514;28;20025;-74
2021/08/27 07:11:07;;;;;;;11.73;2.70;;;;;;;;;;5072703;28;20028;-75
2021/08/27 07:13:33;;;;;;;14.43;3.22;;;;;;;;;;5066188;28;20021;-75
2021/08/27 07:15:59;;;;;;;7.55;2.40;;;;;;;;;;5073078;28;20036;-75
2021/08/27 07:18:26;;;;;;;5.93;2.50;;;;;;;;;;5053263;28;20032;-75
2021/08/27 07:20:53;;;;;;;6.72;2.63;;;;;;;;;;5072436;28;20044;-75
2021/08/27 07:23:19;;;;;;;10.50;2.90;;;;;;;;;;5073034;28;20156;-75
2021/08/27 07:25:45;;;;;;;7.15;2.25;;;;;;;;;;5054643;28;20078;-75
2021/08/27 07:28:11;;;;;;;6.45;2.13;;;;;;;;;;5072947;28;20499;-75
2021/08/27 07:30:37;;;;;;;5.47;2.20;;;;;;;;;;5072655;28;20082;-76
2021/08/27 07:33:03;;;;;;;7.07;2.67;;;;;;;;;;5072176;28;20066;-76
2021/08/27 07:35:29;;;;;;;7.65;2.70;;;;;;;;;;5073328;28;20081;-76
2021/08/27 07:37:55;;;;;;;3.95;2.42;;;;;;;;;;5073034;28;20119;-76
2021/08/27 07:40:22;;;;;;;4.75;1.83;;;;;;;;;;5054132;28;20044;-76
2021/08/27 07:42:48;;;;;;;9.98;2.40;;;;;;;;;;5072944;28;20029;-76
2021/08/27 07:45:14;;;;;;;7.05;1.95;;;;;;;;;;5055089;28;20120;-76
2021/08/27 07:47:41;;;;;;;5.90;1.80;;;;;;;;;;5072984;28;20468;-76
2021/08/27 07:50:08;;;;;;;4.00;1.60;;;;;;;;;;5072170;28;20038;-76
2021/08/27 07:52:34;;;;;;;4.70;1.70;;;;;;;;;;5072672;28;20067;-76
2021/08/27 07:55:00;;;;;;;4.10;1.98;;;;;;;;;;5072838;28;20115;-76
2021/08/27 07:57:26;;;;;;;6.05;2.05;;;;;;;;;;5072490;28;20028;-76
2021/08/27 07:59:52;;;;;;;3.55;1.55;;;;;;;;;;5053921;28;20029;-76
2021/08/27 08:02:18;;;;;;;7.32;1.80;;;;;;;;;;5072289;28;20040;-76
2021/08/27 08:04:44;;;;;;;5.55;1.98;;;;;;;;;;5072033;28;20074;-76
2021/08/27 08:07:10;;;;;;;5.68;1.80;;;;;;;;;;5054674;28;20033;-77
2021/08/27 08:09:36;;;;;;;5.68;2.08;;;;;;;;;;5067027;28;20017;-76
2021/08/27 08:12:02;;;;;;;7.55;1.50;;;;;;;;;;5062660;28;20028;-76
2021/08/27 08:14:28;;;;;;;6.20;2.78;;;;;;;;;;5015867;28;20033;-76
2021/08/27 08:16:54;;;;;;;4.65;1.80;;;;;;;;;;5050155;28;20106;-76
2021/08/27 08:19:21;;;;;;;5.78;1.58;;;;;;;;;;5067077;28;20029;-76
2021/08/27 08:21:47;;;;;;;5.35;1.75;;;;;;;;;;5072246;28;20046;-77
2021/08/27 08:24:13;;;;;;;7.07;1.77;;;;;;;;;;5072096;28;20162;-77
2021/08/27 08:26:39;;;;;;;4.55;1.30;;;;;;;;;;5071888;28;20214;-76
2021/08/27 08:29:06;;;;;;;5.53;1.65;;;;;;;;;;5070935;28;20036;-76
2021/08/27 08:31:32;;;;;;;2.83;1.30;;;;;;;;;;5054149;28;20393;-76
2021/08/27 08:33:58;;;;;;;4.90;1.48;;;;;;;;;;5071590;28;20029;-77
2021/08/27 08:36:24;;;;;;;5.10;1.50;;;;;;;;;;5047574;28;20075;-77
2021/08/27 08:38:51;;;;;;;3.20;1.38;;;;;;;;;;5071796;28;20024;-77
2021/08/27 08:41:17;;;;;;;6.10;1.50;;;;;;;;;;5071337;28;20048;-77
2021/08/27 08:43:44;;;;;;;5.47;1.50;;;;;;;;;;5053482;28;20078;-77
2021/08/27 08:46:11;;;;;;;4.32;1.55;;;;;;;;;;5071840;28;20020;-77
2021/08/27 08:48:37;;;;;;;6.45;1.60;;;;;;;;;;5051602;28;20075;-77
2021/08/27 08:51:06;;;;;;;2.95;1.30;;;;;;;;;;5058526;28;20042;-77
2021/08/27 08:53:35;;;;;;;6.03;1.55;;;;;;;;;;5071828;28;20028;-77
2021/08/27 08:56:02;;;;;;;5.78;1.52;;;;;;;;;;5071471;28;20032;-76
2021/08/27 08:58:28;;;;;;;5.20;1.33;;;;;;;;;;5071588;28;20035;-76
2021/08/27 09:00:54;;;;;;;4.80;1.42;;;;;;;;;;5047264;28;20032;-74
2021/08/27 09:03:20;;;;;;;4.88;1.88;;;;;;;;;;5070326;28;20047;-76
2021/08/27 09:05:46;;;;;;;36.25;20.40;;;;;;;;;;5053705;28;20016;-76
2021/08/27 09:08:15;;;;;;;6.65;2.90;;;;;;;;;;5071039;28;20033;-76
2021/08/27 09:10:42;;;;;;;11.50;2.25;;;;;;;;;;5070719;28;20047;-76
2021/08/27 09:13:08;;;;;;;7.65;1.73;;;;;;;;;;5058238;28;20028;-76
2021/08/27 09:15:34;;;;;;;5.03;1.27;;;;;;;;;;5051467;28;20025;-76
2021/08/27 09:18:04;;;;;;;4.30;1.70;;;;;;;;;;5066943;28;20036;-76
2021/08/27 09:20:30;;;;;;;4.65;1.15;;;;;;;;;;5070049;28;20550;-76
2021/08/27 09:22:57;;;;;;;5.50;1.30;;;;;;;;;;5071262;28;20036;-76
2021/08/27 09:25:28;;;;;;;5.68;1.38;;;;;;;;;;5071055;28;20032;-76
2021/08/27 09:28:01;;;;;;;2.67;1.00;;;;;;;;;;5053435;28;20025;-76
2021/08/27 09:30:27;;;;;;;5.57;1.58;;;;;;;;;;5070478;28;20028;-76
2021/08/27 09:32:54;;;;;;;3.80;1.75;;;;;;;;;;5071339;28;20481;-77
2021/08/27 09:35:22;;;;;;;4.68;1.60;;;;;;;;;;5053232;28;20029;-77
2021/08/27 09:37:53;;;;;;;6.47;1.35;;;;;;;;;;5036113;28;20025;-77
2021/08/27 09:40:26;;;;;;;8.55;3.95;;;;;;;;;;5052115;28;20054;-76
2021/08/27 09:42:52;;;;;;;8.45;3.72;;;;;;;;;;5070924;28;20039;-77
2021/08/27 09:45:19;;;;;;;5.93;1.80;;;;;;;;;;5033056;28;20032;-77
2021/08/27 09:47:58;;;;;;;4.07;1.45;;;;;;;;;;5069821;28;20466;-77
2021/08/27 09:50:25;;;;;;;4.85;2.08;;;;;;;;;;5069687;28;20382;-76
2021/08/27 09:52:58;;;;;;;7.25;2.60;;;;;;;;;;5052794;28;20060;-77
2021/08/27 09:55:25;;;;;;;2.78;1.80;;;;;;;;;;5071158;28;20676;-76
2021/08/27 09:57:52;;;;;;;6.00;1.85;;;;;;;;;;5074654;28;20447;-77
2021/08/27 10:00:18;;;;;;;5.43;1.70;;;;;;;;;;5056043;28;20116;-77
2021/08/27 10:02:45;;;;;;;7.63;2.50;;;;;;;;;;5074478;28;20603;-77
2021/08/27 10:05:11;;;;;;;4.38;1.60;;;;;;;;;;5074949;28;20031;-77
2021/08/27 10:07:39;;;;;;;6.10;1.52;;;;;;;;;;5074664;28;20044;-76
2021/08/27 10:10:06;;;;;;;5.20;1.70;;;;;;;;;;5074157;28;20028;-77
2021/08/27 10:12:34;;;;;;;8.13;1.98;;;;;;;;;;5066578;28;20044;-78
2021/08/27 10:15:01;;;;;;;4.00;1.30;;;;;;;;;;5061234;28;20565;-78
2021/08/27 10:17:27;;;;;;;5.20;1.50;;;;;;;;;;5057112;28;20082;-78
2021/08/27 10:19:53;;;;;;;6.72;1.10;;;;;;;;;;5068797;28;20032;-78
2021/08/27 10:22:22;;;;;;;2.92;0.90;;;;;;;;;;5066639;28;20060;-78
2021/08/27 10:24:49;;;;;;;3.80;1.30;;;;;;;;;;5064034;28;20030;-78
2021/08/27 10:27:15;;;;;;;3.95;1.10;;;;;;;;;;5067831;28;20016;-78
2021/08/27 10:30:02;;;;;;;3.80;1.58;;;;;;;;;;5068425;28;20035;-79
2021/08/27 10:32:40;;;;;;;5.60;1.30;;;;;;;;;;5064125;28;20059;-77
2021/08/27 10:35:07;;;;;;;3.90;1.27;;;;;;;;;;5060669;28;20021;-77
2021/08/27 10:37:48;;;;;;;3.55;1.23;;;;;;;;;;5067254;28;20075;-77
2021/08/27 10:40:26;;;;;;;4.68;1.40;;;;;;;;;;5047201;28;20379;-77
2021/08/27 10:43:02;;;;;;;4.25;1.58;;;;;;;;;;5045457;28;20108;-78
2021/08/27 10:45:41;;;;;;;3.40;1.23;;;;;;;;;;5064587;28;20025;-77
2021/08/27 10:48:09;;;;;;;5.80;2.03;;;;;;;;;;5067993;28;20392;-77
2021/08/27 10:50:36;;;;;;;5.53;1.98;;;;;;;;;;5063721;28;20451;-77
2021/08/27 10:53:21;;;;;;;7.03;1.60;;;;;;;;;;5064253;28;20024;-77
2021/08/27 10:55:47;;;;;;;5.85;1.42;;;;;;;;;;5064385;28;20035;-77
2021/08/27 10:58:14;;;;;;;5.45;2.17;;;;;;;;;;5065441;28;20024;-77
2021/08/27 11:00:41;;;;;;;4.88;1.90;;;;;;;;;;5064725;28;20067;-79
2021/08/27 11:03:08;;;;;;;5.88;2.08;;;;;;;;;;5069244;28;20055;-79
2021/08/27 11:05:36;;;;;;;4.60;1.48;;;;;;;;;;5049769;28;20029;-78
2021/08/27 11:08:02;;;;;;;3.78;1.42;;;;;;;;;;5064400;28;20024;-78
2021/08/27 11:10:29;;;;;;;6.50;1.50;;;;;;;;;;5063776;28;20039;-78
2021/08/27 11:12:59;;;;;;;5.45;1.45;;;;;;;;;;5065475;28;20027;-78
2021/08/27 11:15:26;;;;;;;8.65;1.90;;;;;;;;;;5062042;28;20021;-77
2021/08/27 11:18:07;;;;;;;3.00;1.00;;;;;;;;;;5065025;28;20032;-77
2021/08/27 11:20:33;;;;;;;3.95;1.38;;;;;;;;;;5061745;28;20127;-77
2021/08/27 11:22:59;;;;;;;8.55;2.40;;;;;;;;;;5064010;28;20585;-76
2021/08/27 11:25:25;;;;;;;4.85;1.60;;;;;;;;;;5028827;28;20024;-77
2021/08/27 11:28:27;;;;;;;7.10;2.17;;;;;;;;;;5064452;28;20059;-77
2021/08/27 11:31:06;;;;;;;4.05;1.20;;;;;;;;;;4944775;28;20035;-78
2021/08/27 11:33:41;;;;;;;5.05;0.90;;;;;;;;;;5059994;28;20036;-79
2021/08/27 11:36:07;;;;;;;6.68;1.20;;;;;;;;;;5050629;28;20143;-78
2021/08/27 11:38:34;;;;;;;3.10;1.13;;;;;;;;;;5066845;28;20024;-77
2021/08/27 11:41:01;;;;;;;7.32;1.63;;;;;;;;;;5046929;28;20819;-77
2021/08/27 11:43:35;;;;;;;4.03;1.20;;;;;;;;;;5063361;28;20489;-77
2021/08/27 11:46:13;;;;;;;3.22;1.30;;;;;;;;;;5063006;28;20108;-77
2021/08/27 11:48:40;;;;;;;6.97;1.27;;;;;;;;;;5062321;28;20107;-77
2021/08/27 11:51:09;;;;;;;4.90;1.27;;;;;;;;;;5071553;28;20024;-77
2021/08/27 11:53:35;;;;;;;2.08;1.08;;;;;;;;;;5064705;28;20032;-78
2021/08/27 11:56:01;;;;;;;3.15;1.30;;;;;;;;;;5072396;28;20082;-78
2021/08/27 11:58:40;;;;;;;3.50;1.20;;;;;;;;;;5054367;28;20029;-77
2021/08/27 12:01:06;;;;;;;4.55;1.20;;;;;;;;;;5067930;28;20025;-78
2021/08/27 12:03:32;;;;;;;4.40;1.70;;;;;;;;;;5071985;28;20039;-77
2021/08/27 12:05:58;;;;;;;1.80;0.80;;;;;;;;;;5072140;28;20482;-77
2021/08/27 12:08:27;;;;;;;3.85;1.20;;;;;;;;;;5071245;28;20146;-77
2021/08/27 12:10:53;;;;;;;3.65;1.70;;;;;;;;;;5053266;28;20082;-77
2021/08/27 12:13:19;;;;;;;4.05;1.45;;;;;;;;;;5056468;28;20044;-77
2021/08/27 12:15:46;;;;;;;4.15;1.17;;;;;;;;;;5034817;28;20557;-77
2021/08/27 12:18:13;;;;;;;5.97;1.10;;;;;;;;;;5068594;28;20447;-77
2021/08/27 12:20:40;;;;;;;6.80;1.70;;;;;;;;;;5052706;28;20056;-78
2021/08/27 12:23:12;;;;;;;2.80;1.40;;;;;;;;;;5070756;28;20027;-78
2021/08/27 12:25:43;;;;;;;;;;;;;;;;;;5071172;28;20074;-77
2021/08/27 12:28:10;;;;;;;3.17;1.20;;;;;;;;;;5054223;28;19905;-77
2021/08/27 12:30:44;;;;;;;4.07;1.38;;;;;;;;;;5053793;28;20461;-77
2021/08/27 12:33:11;;;;;;;2.50;1.38;;;;;;;;;;5060583;28;20021;-77
2021/08/27 12:35:37;;;;;;;3.45;1.27;;;;;;;;;;5065015;28;20037;-77
2021/08/27 12:38:04;;;;;;;6.10;1.50;;;;;;;;;;5071384;28;20028;-77
2021/08/27 12:40:31;;;;;;;3.55;1.45;;;;;;;;;;5053061;28;20032;-78
2021/08/27 12:42:58;;;;;;;5.07;1.55;;;;;;;;;;5070811;28;20488;-77
2021/08/27 12:45:24;;;;;;;2.88;1.38;;;;;;;;;;5053478;28;20095;-77
2021/08/27 12:47:53;;;;;;;3.35;1.55;;;;;;;;;;5071429;28;20033;-77
2021/08/27 12:50:19;;;;;;;3.47;1.33;;;;;;;;;;5071251;28;20382;-76
2021/08/27 12:53:00;;;;;;;3.97;1.38;;;;;;;;;;5071341;28;20052;-76
2021/08/27 12:55:28;;;;;;;4.80;2.00;;;;;;;;;;5071542;28;20029;-78
2021/08/27 12:57:54;;;;;;;3.28;1.48;;;;;;;;;;5071129;28;20029;-76
2021/08/27 13:00:27;;;;;;;2.65;1.30;;;;;;;;;;5070926;28;20086;-76
2021/08/27 13:02:54;;;;;;;4.13;1.63;;;;;;;;;;5070886;28;20073;-75
2021/08/27 13:05:37;;;;;;;6.55;1.75;;;;;;;;;;5071224;28;20029;-76
2021/08/27 13:08:03;;;;;;;;;;;;;;;;;;5071596;28;20029;-76
2021/08/27 13:10:29;;;;;;;4.68;1.45;;;;;;;;;;5070705;28;19951;-77
2021/08/27 13:12:55;;;;;;;4.85;1.25;;;;;;;;;;5053589;28;20028;-76
2021/08/27 13:15:22;;;;;;;3.22;1.40;;;;;;;;;;5071366;28;20043;-77
2021/08/27 13:17:55;;;;;;;5.32;1.50;;;;;;;;;;5071356;28;20033;-77
2021/08/27 13:20:21;;;;;;;;;;;;;;;;;;5070889;28;20039;-77
2021/08/27 13:22:47;;;;;;;2.20;1.33;;;;;;;;;;5064181;28;19904;-78
2021/08/27 13:25:13;;;;;;;7.70;1.80;;;;;;;;;;5061699;28;20041;-77
2021/08/27 13:27:43;;;;;;;4.30;1.20;;;;;;;;;;5064963;28;20047;-76
2021/08/27 13:30:13;;;;;;;3.40;1.38;;;;;;;;;;5061992;28;20550;-76
2021/08/27 13:32:39;;;;;;;6.72;1.60;;;;;;;;;;5066824;28;20122;-76
2021/08/27 13:35:05;;;;;;;3.50;1.48;;;;;;;;;;5048095;28;20039;-77
2021/08/27 13:37:31;;;;;;;2.58;1.27;;;;;;;;;;5062806;28;20029;-77
2021/08/27 13:39:57;;;;;;;4.63;1.60;;;;;;;;;;5073323;28;20032;-76
2021/08/27 13:42:23;;;;;;;4.35;1.40;;;;;;;;;;5057242;28;20465;-77
2021/08/27 13:44:49;;;;;;;5.18;1.40;;;;;;;;;;5074680;28;20028;-77
2021/08/27 13:47:15;;;;;;;4.15;1.33;;;;;;;;;;5057406;28;20420;-76
2021/08/27 13:49:41;;;;;;;2.92;1.52;;;;;;;;;;5074228;28;20531;-77
2021/08/27 13:52:07;;;;;;;2.15;1.38;;;;;;;;;;5073526;22;20040;-85
2021/08/27 13:54:33;;;;;;;3.85;1.52;;;;;;;;;;5077677;28;20392;-83
2021/08/27 13:56:59;;;;;;;3.80;1.30;;;;;;;;;;5080431;28;20036;-83
2021/08/27 13:59:25;;;;;;;6.13;1.30;;;;;;;;;;5078852;28;20127;-83
2021/08/27 14:01:51;;;;;;;4.82;1.50;;;;;;;;;;5080243;28;20109;-84
2021/08/27 14:04:17;;;;;;;4.10;1.55;;;;;;;;;;5079438;28;20098;-83
2021/08/27 14:06:43;;;;;;;2.33;1.30;;;;;;;;;;5080672;28;20025;-84
2021/08/27 14:09:11;;;;;;;4.53;1.05;;;;;;;;;;5081479;28;20035;-83
2021/08/27 14:11:37;;;;;;;2.83;1.40;;;;;;;;;;5083224;28;20021;-84
2021/08/27 14:14:03;;;;;;;3.38;1.30;;;;;;;;;;5084667;28;20030;-83
2021/08/27 14:16:29;;;;;;;5.00;1.55;;;;;;;;;;5082839;28;20036;-83
2021/08/27 14:18:55;;;;;;;3.42;1.30;;;;;;;;;;5080325;28;20020;-83
2021/08/27 14:21:22;;;;;;;4.63;1.30;;;;;;;;;;5061011;28;20060;-83
2021/08/27 14:23:48;;;;;;;4.07;1.30;;;;;;;;;;5081210;28;20121;-83
2021/08/27 14:26:14;;;;;;;2.80;1.20;;;;;;;;;;5081555;28;20028;-83
2021/08/27 14:28:40;;;;;;;4.30;1.40;;;;;;;;;;5082818;28;20095;-83
2021/08/27 14:31:08;;;;;;;3.00;1.08;;;;;;;;;;5082956;28;20056;-83
2021/08/27 14:33:35;;;;;;;2.92;1.58;;;;;;;;;;5081328;28;20024;-84
2021/08/27 14:36:01;;;;;;;4.35;1.30;;;;;;;;;;5082339;28;20023;-83
2021/08/27 14:38:27;;;;;;;4.50;1.10;;;;;;;;;;5084814;28;20032;-83
2021/08/27 14:40:53;;;;;;;3.08;1.10;;;;;;;;;;5083765;28;20032;-83
2021/08/27 14:43:20;;;;;;;2.90;1.08;;;;;;;;;;5082735;28;20028;-83